KLND/LND METAR and TAF weather

Enter ICAO airport designator
Station Type Date Time Source
KLND METAR 2018/12/12 07:53 UTC NOAA

KLND 120753Z AUTO 00000KT 10SM CLR M04/M13 A2978 RMK AO2 SLP104 T10391128


Station Type Date Time Source
KLND Decoded METAR 2018/12/12 07:53 UTC NOAA

LANDER HUNT FIELD, WY, United States (KLND) 42-49N 108-44W 1694M
Dec 12, 2018 - 02:53 AM EST / 2018.12.12 0753 UTC
Wind: Calm:0
Visibility: 10 mile(s):0
Sky conditions: clear
Temperature: 25.0 F (-3.9 C)
Dew Point: 9.0 F (-12.8 C)
Relative Humidity: 49%
Pressure (altimeter): 29.78 in. Hg (1008 hPa)
ob: KLND 120753Z AUTO 00000KT 10SM CLR M04/M13 A2978 RMK AO2 SLP104 T10391128
cycle: 8

Station Type Date Time Source
KLND TAF 2018/12/12 06:34 UTC NOAA

TAF KLND 120531Z 1206/1306 VRB06KT P6SM SCT120 BKN200
FM121500 25010KT P6SM SCT120 BKN200
FM121900 32014G24KT P6SM BKN100
FM130100 28008KT P6SM SCT100


Example: see airport list